アルハンゲリスク の空港の天気 - METARとTAF

Arhangel'Sk ( ULAA / ARH ) - ロシア アルハンゲリスク
飛行場実況気象(Metar)
観測時間04/21 19:30 MSK (04/21 16:30 UTC)
風向・風速西南西 4m/s
視程10km以上
天気現象
全天の4割程度の雲 雲底高度 1220m
気温8℃
湿度46%
気圧1019hPa
METARULAA 211630Z 25004MPS 210V290 9999 SCT040 08/M03 Q1019 R26/CLRD68 NOSIG RMK QFE763/1017
過去の天気等 Google飛行場航空写真 Wunderground天気予報

過去48時間のMETAR

飛行場予報(TAF)
発表時間: 4/21 17:00 MSK (4/21 14:00 UTC)
予報対象時間: 21日18時 MSK ~ 22日18時 MSK
風向・風速西 5m/s
視程10km以上
全天の8割程度の雲 雲底高度 460m
21日18時 MSK ~ 21日24時 MSK に一時的に
風向・風速西南西 5m/s 瞬間風速 12m/s
22日0時 MSK ~ 22日6時 MSK に一時的に
風向・風速西南西 5m/s 瞬間風速 12m/s
視程3100m
天気現象弱い雨 もや
少しの雲 雲底高度 210m
全天の8割程度の雲 雲底高度 340m
22日6時 MSK から
風向・風速西 5m/s
視程5000m
天気現象弱い雨
全天の8割程度の雲 雲底高度 340m
22日6時 MSK ~ 22日12時 MSK に一時的に
風向・風速西 5m/s 瞬間風速 12m/s
視程2000m
天気現象しゅう雨 もや
全天の8割程度の雲 雲底高度 150m
全天の8割程度の積乱雲 雲底高度 340m
TAF ULAA 211400Z 2115/2215 26005MPS 9999 BKN015
TEMPO 2115/2121 25005G12MPS
TEMPO 2121/2203 25005G12MPS 3100 -RA BR FEW007 BKN011
FM220300 27005MPS 5000 -RA BKN011
TEMPO 2203/2209 27005G12MPS 2000 SHRA BR BKN005 BKN011CB